createdAt,value
2024-03-13T00:03:49.261Z,95993.80
2024-03-13T00:07:43.309Z,95993.80
2024-03-13T00:11:40.311Z,95997.29
2024-03-13T00:15:57.526Z,95994.38
2024-03-13T00:19:48.330Z,95989.40
2024-03-13T00:35:22.169Z,95974.38
2024-03-13T00:49:25.017Z,95974.64
2024-03-13T01:11:56.181Z,95975.02
2024-03-13T01:15:57.234Z,95969.68
2024-03-13T01:23:15.940Z,95959.58
2024-03-13T01:33:56.274Z,95952.50
2024-03-13T01:41:09.177Z,95945.70
2024-03-13T01:48:27.097Z,95943.76
2024-03-13T01:59:43.562Z,95939.88
2024-03-13T02:14:28.243Z,95930.52
2024-03-13T02:26:26.286Z,95924.67
2024-03-13T02:45:12.372Z,95926.41
2024-03-13T02:49:11.152Z,95920.50
2024-03-13T02:53:26.847Z,95922.02
2024-03-13T02:57:02.186Z,95920.07
2024-03-13T03:00:45.203Z,95921.17
2024-03-13T03:05:06.234Z,95928.31
2024-03-13T03:09:00.382Z,95923.14
2024-03-13T03:20:16.200Z,95919.86
2024-03-13T03:23:47.194Z,95919.36
2024-03-13T03:27:42.136Z,95923.17
2024-03-13T03:35:08.265Z,95919.42
2024-03-13T03:42:41.003Z,95918.69
2024-03-13T03:46:22.089Z,95921.27
2024-03-13T03:50:22.540Z,95920.48
2024-03-13T03:54:40.276Z,95913.45
2024-03-13T03:58:41.193Z,95911.87
2024-03-13T04:02:50.801Z,95914.19
2024-03-13T04:07:20.529Z,95916.73
2024-03-13T04:11:52.379Z,95920.11
2024-03-13T04:16:02.106Z,95921.16
2024-03-13T04:23:22.343Z,95921.59
2024-03-13T04:27:22.061Z,95919.42
2024-03-13T04:41:52.326Z,95924.61
2024-03-13T04:45:22.533Z,95922.91
2024-03-13T04:49:23.620Z,95926.66
2024-03-13T04:53:13.945Z,95928.51
2024-03-13T04:57:22.064Z,95929.94
2024-03-13T05:01:14.042Z,95928.66
2024-03-13T05:21:14.708Z,95932.36
2024-03-13T05:24:47.925Z,95929.00
2024-03-13T05:28:39.068Z,95930.05
2024-03-13T05:31:28.343Z,95935.23
2024-03-13T05:50:56.118Z,95936.15
2024-03-13T05:55:05.781Z,95937.52
2024-03-13T05:59:19.948Z,95941.32
2024-03-13T06:03:30.431Z,95943.02
2024-03-13T06:37:39.860Z,95955.56
2024-03-13T06:42:14.196Z,95956.15
2024-03-13T07:27:51.881Z,95964.23
2024-03-13T07:31:35.853Z,95962.33
2024-03-13T07:35:47.247Z,95959.32
2024-03-13T07:39:57.866Z,95962.06
2024-03-13T07:44:27.587Z,95967.41
2024-03-13T09:08:48.597Z,95994.38
2024-03-13T09:16:40.174Z,95992.39
2024-03-13T09:20:09.888Z,95997.12
2024-03-13T09:27:38.999Z,96000.06
2024-03-13T09:31:15.732Z,95998.52
2024-03-13T09:35:07.127Z,96004.77
2024-03-13T09:39:04.110Z,96007.20
2024-03-13T09:43:53.504Z,96004.84
2024-03-13T09:48:05.274Z,96001.49
2024-03-13T09:52:20.735Z,96008.94
2024-03-13T09:56:32.195Z,96004.66
2024-03-13T10:30:42.571Z,96022.10
2024-03-13T10:39:06.761Z,96022.95
2024-03-13T10:43:18.649Z,96024.85
2024-03-13T10:47:49.633Z,96023.23
2024-03-13T11:07:02.690Z,96024.50
2024-03-13T11:11:18.959Z,96026.59
2024-03-13T11:15:41.556Z,96026.74
2024-03-13T11:33:00.248Z,96022.98
2024-03-13T11:37:27.802Z,96019.67
2024-03-13T11:48:38.455Z,96015.45
2024-03-13T11:53:12.616Z,96016.80
2024-03-13T11:57:07.447Z,96016.27
2024-03-13T12:32:34.090Z,96031.98
2024-03-13T12:36:59.759Z,96030.05
2024-03-13T12:41:09.299Z,96026.89
2024-03-13T12:45:01.159Z,96029.66
2024-03-13T12:52:59.914Z,96035.06
2024-03-13T13:18:59.773Z,96032.73
2024-03-13T13:23:28.310Z,96034.42
2024-03-13T13:27:00.648Z,96028.82
2024-03-13T13:45:50.610Z,96038.71
2024-03-13T14:01:40.791Z,96049.35
2024-03-13T14:23:27.570Z,96058.90
2024-03-13T14:38:04.758Z,96074.72
2024-03-13T14:53:02.929Z,96090.63
2024-03-13T15:00:32.550Z,96096.84
2024-03-13T15:45:50.147Z,96106.72
2024-03-13T15:59:44.976Z,96117.64
2024-03-13T16:03:36.504Z,96112.37
2024-03-13T16:35:01.725Z,96136.71
2024-03-13T16:38:31.721Z,96141.67
2024-03-13T16:41:47.655Z,96144.39
2024-03-13T16:45:44.544Z,96148.45
2024-03-13T16:49:24.748Z,96150.83
2024-03-13T16:53:35.661Z,96151.80
2024-03-13T16:57:44.151Z,96153.27
2024-03-13T17:01:40.723Z,96157.84
2024-03-13T17:08:28.030Z,96165.30
2024-03-13T17:11:32.491Z,96171.00
2024-03-13T17:14:32.300Z,96174.77
2024-03-13T17:17:31.170Z,96173.73
2024-03-13T17:20:41.732Z,96179.73
2024-03-13T17:24:38.293Z,96184.08
2024-03-13T17:29:02.076Z,96188.16
2024-03-13T17:33:15.983Z,96188.23
2024-03-13T17:37:05.388Z,96190.63
2024-03-13T17:40:51.992Z,96195.62
2024-03-13T17:44:09.087Z,96193.77
2024-03-13T17:47:58.344Z,96193.44
2024-03-13T17:51:46.921Z,96196.94
2024-03-13T17:55:36.561Z,96194.98
2024-03-13T18:00:24.811Z,96196.25
2024-03-13T18:04:52.861Z,96200.96
2024-03-13T18:08:40.283Z,96206.70
2024-03-13T18:19:51.061Z,96208.78
2024-03-13T18:23:36.930Z,96209.95
2024-03-13T18:27:34.513Z,96209.72
2024-03-13T18:31:44.699Z,96214.52
2024-03-13T18:35:52.043Z,96213.94
2024-03-13T18:39:34.100Z,96215.27
2024-03-13T18:43:45.363Z,96217.01
2024-03-13T19:12:08.068Z,96233.06
2024-03-13T19:16:34.957Z,96241.29
2024-03-13T19:20:42.912Z,96242.14
2024-03-13T19:24:58.790Z,96241.66
2024-03-13T19:40:41.405Z,96242.75
2024-03-13T19:44:50.601Z,96243.29
2024-03-13T19:48:42.009Z,96247.79
2024-03-13T19:52:51.000Z,96252.23
2024-03-13T19:56:21.080Z,96258.63
2024-03-13T20:00:00.396Z,96257.49
2024-03-13T20:03:30.086Z,96261.77
2024-03-13T20:22:20.702Z,96260.61
2024-03-13T20:25:42.822Z,96257.73
2024-03-13T20:28:35.517Z,96256.56
2024-03-13T20:31:47.557Z,96256.73
2024-03-13T20:35:19.225Z,96258.38
2024-03-13T20:38:33.800Z,96262.80
2024-03-13T20:42:05.935Z,96259.84
2024-03-13T20:48:03.834Z,96265.05
2024-03-13T20:55:26.285Z,96262.85
2024-03-13T20:59:22.827Z,96263.88
2024-03-13T21:03:31.462Z,96262.41
2024-03-13T21:07:20.089Z,96263.17
2024-03-13T21:10:58.600Z,96267.06
2024-03-13T21:14:13.420Z,96268.09
2024-03-13T21:17:31.127Z,96270.83
2024-03-13T21:21:01.389Z,96267.62
2024-03-13T21:24:23.401Z,96267.04
2024-03-13T21:27:39.154Z,96269.55
2024-03-13T22:09:19.142Z,96274.59
2024-03-13T22:12:47.965Z,96279.95
2024-03-13T22:16:21.721Z,96280.38
2024-03-13T22:20:10.926Z,96286.16
2024-03-13T22:23:58.128Z,96288.65
2024-03-13T22:27:34.305Z,96289.89
2024-03-13T22:35:46.424Z,96289.02
2024-03-13T22:40:07.772Z,96292.42
2024-03-13T22:43:46.776Z,96291.37
2024-03-13T22:47:54.153Z,96294.73
2024-03-13T22:52:09.025Z,96294.96
2024-03-13T22:56:00.846Z,96298.17
2024-03-13T22:59:49.621Z,96299.63
2024-03-13T23:03:35.509Z,96304.64
2024-03-13T23:22:12.245Z,96308.27
2024-03-13T23:26:21.712Z,96313.89
2024-03-13T23:29:51.644Z,96311.39
2024-03-13T23:33:49.379Z,96313.95
2024-03-13T23:37:36.120Z,96310.20
2024-03-13T23:55:53.651Z,96299.19
